sensor_id;sensor_type;location;lat;lon;timestamp;pressure;altitude;pressure_sealevel;temperature;humidity
71392;BME280;59205;50.610;12.638;2022-09-12T00:00:39;95910.44;;;11.43;100.00
71392;BME280;59205;50.610;12.638;2022-09-12T00:03:05;95909.22;;;11.53;100.00
71392;BME280;59205;50.610;12.638;2022-09-12T00:05:30;95915.69;;;11.55;100.00
71392;BME280;59205;50.610;12.638;2022-09-12T00:07:57;95906.97;;;11.60;100.00
71392;BME280;59205;50.610;12.638;2022-09-12T00:10:23;95914.47;;;11.65;100.00
71392;BME280;59205;50.610;12.638;2022-09-12T00:12:49;95909.94;;;11.71;100.00
71392;BME280;59205;50.610;12.638;2022-09-12T00:15:14;95912.66;;;11.71;100.00
71392;BME280;59205;50.610;12.638;2022-09-12T00:17:39;95902.50;;;11.81;100.00
71392;BME280;59205;50.610;12.638;2022-09-12T00:20:06;95897.22;;;11.77;100.00
71392;BME280;59205;50.610;12.638;2022-09-12T00:22:33;95898.13;;;11.83;100.00
71392;BME280;59205;50.610;12.638;2022-09-12T00:24:59;95894.34;;;11.81;100.00
71392;BME280;59205;50.610;12.638;2022-09-12T00:27:24;95892.19;;;11.93;100.00
71392;BME280;59205;50.610;12.638;2022-09-12T00:29:50;95892.00;;;11.97;100.00
71392;BME280;59205;50.610;12.638;2022-09-12T00:32:15;95886.97;;;11.81;100.00
71392;BME280;59205;50.610;12.638;2022-09-12T00:34:47;95881.22;;;11.79;100.00
71392;BME280;59205;50.610;12.638;2022-09-12T00:37:13;95881.56;;;11.72;100.00
71392;BME280;59205;50.610;12.638;2022-09-12T00:39:38;95881.91;;;11.65;100.00
71392;BME280;59205;50.610;12.638;2022-09-12T00:42:04;95880.25;;;11.59;100.00
71392;BME280;59205;50.610;12.638;2022-09-12T00:50:26;95879.75;;;11.28;100.00
71392;BME280;59205;50.610;12.638;2022-09-12T00:52:45;95881.06;;;11.41;100.00
71392;BME280;59205;50.610;12.638;2022-09-12T00:55:40;95880.91;;;11.36;100.00
71392;BME280;59205;50.610;12.638;2022-09-12T00:58:23;95879.13;;;11.33;100.00
71392;BME280;59205;50.610;12.638;2022-09-12T01:00:50;95871.72;;;11.33;100.00
71392;BME280;59205;50.610;12.638;2022-09-12T01:03:17;95876.22;;;11.36;100.00
71392;BME280;59205;50.610;12.638;2022-09-12T01:05:52;95873.41;;;11.31;100.00
71392;BME280;59205;50.610;12.638;2022-09-12T01:08:22;95869.91;;;11.30;100.00
71392;BME280;59205;50.610;12.638;2022-09-12T01:10:48;95869.19;;;11.30;100.00
71392;BME280;59205;50.610;12.638;2022-09-12T01:13:14;95863.59;;;11.33;100.00
71392;BME280;59205;50.610;12.638;2022-09-12T01:15:40;95861.78;;;11.30;100.00
71392;BME280;59205;50.610;12.638;2022-09-12T01:24:20;95862.94;;;10.88;100.00
71392;BME280;59205;50.610;12.638;2022-09-12T01:32:20;95859.59;;;11.02;100.00
71392;BME280;59205;50.610;12.638;2022-09-12T01:34:53;95863.22;;;10.99;100.00
71392;BME280;59205;50.610;12.638;2022-09-12T01:40:24;95868.50;;;11.02;100.00
71392;BME280;59205;50.610;12.638;2022-09-12T01:43:15;95863.81;;;11.03;100.00
71392;BME280;59205;50.610;12.638;2022-09-12T01:46:14;95864.72;;;11.09;100.00
71392;BME280;59205;50.610;12.638;2022-09-12T01:51:54;95869.38;;;11.17;100.00
71392;BME280;59205;50.610;12.638;2022-09-12T01:54:17;95862.41;;;11.25;100.00
71392;BME280;59205;50.610;12.638;2022-09-12T01:56:46;95858.28;;;11.39;100.00
71392;BME280;59205;50.610;12.638;2022-09-12T02:01:45;95858.38;;;11.53;100.00
71392;BME280;59205;50.610;12.638;2022-09-12T02:04:19;95860.81;;;11.60;100.00
71392;BME280;59205;50.610;12.638;2022-09-12T02:07:07;95857.19;;;11.63;100.00
71392;BME280;59205;50.610;12.638;2022-09-12T02:09:42;95857.00;;;11.67;100.00
71392;BME280;59205;50.610;12.638;2022-09-12T02:12:10;95857.00;;;11.67;100.00
71392;BME280;59205;50.610;12.638;2022-09-12T02:14:41;95846.91;;;11.67;100.00
71392;BME280;59205;50.610;12.638;2022-09-12T02:17:12;95854.41;;;11.72;100.00
71392;BME280;59205;50.610;12.638;2022-09-12T02:19:42;95849.91;;;11.69;100.00
71392;BME280;59205;50.610;12.638;2022-09-12T02:22:14;95855.94;;;11.73;100.00
71392;BME280;59205;50.610;12.638;2022-09-12T02:24:44;95845.94;;;11.79;100.00
71392;BME280;59205;50.610;12.638;2022-09-12T02:27:19;95846.69;;;11.80;100.00
71392;BME280;59205;50.610;12.638;2022-09-12T02:29:46;95848.63;;;11.88;100.00
71392;BME280;59205;50.610;12.638;2022-09-12T02:32:37;95845.78;;;11.83;100.00
71392;BME280;59205;50.610;12.638;2022-09-12T02:38:01;95839.28;;;11.80;100.00
71392;BME280;59205;50.610;12.638;2022-09-12T02:40:29;95851.97;;;11.83;100.00
71392;BME280;59205;50.610;12.638;2022-09-12T02:42:55;95842.72;;;11.89;100.00
71392;BME280;59205;50.610;12.638;2022-09-12T02:45:21;95841.97;;;11.89;100.00
71392;BME280;59205;50.610;12.638;2022-09-12T02:47:56;95846.94;;;11.90;100.00
71392;BME280;59205;50.610;12.638;2022-09-12T02:50:23;95838.03;;;11.90;100.00
71392;BME280;59205;50.610;12.638;2022-09-12T02:52:49;95829.97;;;11.81;100.00
71392;BME280;59205;50.610;12.638;2022-09-12T02:55:15;95833.00;;;11.74;100.00
71392;BME280;59205;50.610;12.638;2022-09-12T02:57:41;95839.97;;;11.66;100.00
71392;BME280;59205;50.610;12.638;2022-09-12T03:00:07;95843.00;;;11.59;100.00
71392;BME280;59205;50.610;12.638;2022-09-12T03:03:08;95836.41;;;11.60;100.00
71392;BME280;59205;50.610;12.638;2022-09-12T03:05:43;95848.75;;;11.52;100.00
71392;BME280;59205;50.610;12.638;2022-09-12T03:16:40;95839.50;;;11.68;100.00
71392;BME280;59205;50.610;12.638;2022-09-12T03:22:05;95830.75;;;11.73;100.00
71392;BME280;59205;50.610;12.638;2022-09-12T03:25:02;95834.16;;;11.82;100.00
71392;BME280;59205;50.610;12.638;2022-09-12T03:27:35;95841.13;;;11.74;100.00
71392;BME280;59205;50.610;12.638;2022-09-12T03:30:04;95843.72;;;11.69;100.00
71392;BME280;59205;50.610;12.638;2022-09-12T03:35:06;95843.31;;;11.61;100.00
71392;BME280;59205;50.610;12.638;2022-09-12T03:37:31;95837.13;;;11.61;100.00
71392;BME280;59205;50.610;12.638;2022-09-12T03:39:57;95842.13;;;11.62;100.00
71392;BME280;59205;50.610;12.638;2022-09-12T03:42:22;95845.44;;;11.57;100.00
71392;BME280;59205;50.610;12.638;2022-09-12T03:44:47;95845.00;;;11.50;100.00
71392;BME280;59205;50.610;12.638;2022-09-12T03:47:13;95841.22;;;11.47;100.00
71392;BME280;59205;50.610;12.638;2022-09-12T03:49:38;95844.00;;;11.29;100.00
71392;BME280;59205;50.610;12.638;2022-09-12T03:52:04;95841.59;;;11.31;100.00
71392;BME280;59205;50.610;12.638;2022-09-12T03:54:29;95840.84;;;11.31;100.00
71392;BME280;59205;50.610;12.638;2022-09-12T03:56:54;95840.19;;;11.45;100.00
71392;BME280;59205;50.610;12.638;2022-09-12T03:59:20;95845.28;;;11.52;100.00
71392;BME280;59205;50.610;12.638;2022-09-12T04:01:45;95849.50;;;11.62;100.00
71392;BME280;59205;50.610;12.638;2022-09-12T04:04:10;95845.84;;;11.65;100.00
71392;BME280;59205;50.610;12.638;2022-09-12T04:06:36;95840.00;;;11.57;100.00
71392;BME280;59205;50.610;12.638;2022-09-12T04:09:02;95847.84;;;11.64;100.00
71392;BME280;59205;50.610;12.638;2022-09-12T04:11:27;95845.28;;;11.61;100.00
71392;BME280;59205;50.610;12.638;2022-09-12T04:13:53;95842.41;;;11.64;100.00
71392;BME280;59205;50.610;12.638;2022-09-12T04:16:18;95843.31;;;11.61;100.00
71392;BME280;59205;50.610;12.638;2022-09-12T04:18:45;95839.78;;;11.70;100.00
71392;BME280;59205;50.610;12.638;2022-09-12T04:21:15;95842.50;;;11.70;100.00
71392;BME280;59205;50.610;12.638;2022-09-12T04:23:41;95844.19;;;11.67;100.00
71392;BME280;59205;50.610;12.638;2022-09-12T04:26:07;95839.69;;;11.64;100.00
71392;BME280;59205;50.610;12.638;2022-09-12T04:28:34;95836.97;;;11.64;100.00
71392;BME280;59205;50.610;12.638;2022-09-12T04:31:16;95836.34;;;11.69;100.00
71392;BME280;59205;50.610;12.638;2022-09-12T04:33:43;95838.47;;;11.65;100.00
71392;BME280;59205;50.610;12.638;2022-09-12T04:36:11;95832.84;;;11.69;100.00
71392;BME280;59205;50.610;12.638;2022-09-12T04:38:38;95843.91;;;11.65;100.00
71392;BME280;59205;50.610;12.638;2022-09-12T04:41:32;95839.69;;;11.64;100.00
71392;BME280;59205;50.610;12.638;2022-09-12T04:44:00;95844.81;;;11.62;100.00
71392;BME280;59205;50.610;12.638;2022-09-12T04:46:28;95838.78;;;11.58;100.00
71392;BME280;59205;50.610;12.638;2022-09-12T04:48:54;95841.38;;;11.53;100.00
71392;BME280;59205;50.610;12.638;2022-09-12T04:51:25;95841.88;;;11.42;100.00
71392;BME280;59205;50.610;12.638;2022-09-12T04:53:53;95843.38;;;11.43;100.00
71392;BME280;59205;50.610;12.638;2022-09-12T04:56:20;95834.31;;;11.37;100.00
71392;BME280;59205;50.610;12.638;2022-09-12T04:58:46;95824.69;;;11.36;100.00
71392;BME280;59205;50.610;12.638;2022-09-12T05:01:13;95833.16;;;11.29;100.00
71392;BME280;59205;50.610;12.638;2022-09-12T05:03:40;95835.13;;;11.29;100.00
71392;BME280;59205;50.610;12.638;2022-09-12T05:06:20;95831.81;;;11.25;100.00
71392;BME280;59205;50.610;12.638;2022-09-12T05:08:47;95828.22;;;11.19;100.00
71392;BME280;59205;50.610;12.638;2022-09-12T05:11:18;95835.56;;;11.27;100.00
71392;BME280;59205;50.610;12.638;2022-09-12T05:13:44;95841.75;;;11.28;100.00
71392;BME280;59205;50.610;12.638;2022-09-12T05:16:11;95833.47;;;11.22;100.00
71392;BME280;59205;50.610;12.638;2022-09-12T05:18:38;95834.69;;;11.21;100.00
71392;BME280;59205;50.610;12.638;2022-09-12T05:21:06;95835.13;;;11.29;100.00
71392;BME280;59205;50.610;12.638;2022-09-12T05:23:32;95835.53;;;11.36;100.00
71392;BME280;59205;50.610;12.638;2022-09-12T05:25:59;95829.22;;;11.39;100.00
71392;BME280;59205;50.610;12.638;2022-09-12T05:28:28;95834.16;;;11.41;100.00
71392;BME280;59205;50.610;12.638;2022-09-12T05:31:08;95831.31;;;11.44;100.00
71392;BME280;59205;50.610;12.638;2022-09-12T05:33:36;95836.88;;;11.50;100.00
71392;BME280;59205;50.610;12.638;2022-09-12T05:36:04;95842.88;;;11.54;100.00
71392;BME280;59205;50.610;12.638;2022-09-12T05:38:29;95844.22;;;11.58;100.00
71392;BME280;59205;50.610;12.638;2022-09-12T05:41:11;95847.84;;;11.64;100.00
71392;BME280;59205;50.610;12.638;2022-09-12T05:43:39;95849.91;;;11.69;100.00
71392;BME280;59205;50.610;12.638;2022-09-12T05:46:08;95860.28;;;11.80;100.00
71392;BME280;59205;50.610;12.638;2022-09-12T05:48:35;95856.47;;;11.86;100.00
71392;BME280;59205;50.610;12.638;2022-09-12T05:51:18;95858.09;;;11.93;100.00
71392;BME280;59205;50.610;12.638;2022-09-12T05:53:47;95856.38;;;12.04;100.00
71392;BME280;59205;50.610;12.638;2022-09-12T05:56:15;95864.75;;;12.15;100.00
71392;BME280;59205;50.610;12.638;2022-09-12T05:58:44;95864.63;;;12.33;100.00
71392;BME280;59205;50.610;12.638;2022-09-12T06:01:12;95857.34;;;12.39;100.00
71392;BME280;59205;50.610;12.638;2022-09-12T06:03:41;95863.34;;;12.43;100.00
71392;BME280;59205;50.610;12.638;2022-09-12T06:06:08;95868.09;;;12.57;100.00
71392;BME280;59205;50.610;12.638;2022-09-12T06:08:39;95860.72;;;12.72;100.00
71392;BME280;59205;50.610;12.638;2022-09-12T06:11:05;95869.56;;;12.81;100.00
71392;BME280;59205;50.610;12.638;2022-09-12T06:13:33;95872.97;;;12.91;100.00
71392;BME280;59205;50.610;12.638;2022-09-12T06:16:03;95883.22;;;12.96;100.00
71392;BME280;59205;50.610;12.638;2022-09-12T06:18:29;95878.53;;;13.11;100.00
71392;BME280;59205;50.610;12.638;2022-09-12T06:20:55;95870.47;;;13.31;100.00
71392;BME280;59205;50.610;12.638;2022-09-12T06:23:20;95872.16;;;13.43;100.00
71392;BME280;59205;50.610;12.638;2022-09-12T06:25:47;95872.28;;;13.82;100.00
71392;BME280;59205;50.610;12.638;2022-09-12T06:28:14;95868.91;;;13.87;98.90
71392;BME280;59205;50.610;12.638;2022-09-12T06:30:40;95877.75;;;13.82;97.74
71392;BME280;59205;50.610;12.638;2022-09-12T06:33:06;95874.44;;;13.93;98.31
71392;BME280;59205;50.610;12.638;2022-09-12T06:35:35;95868.84;;;14.02;97.70
71392;BME280;59205;50.610;12.638;2022-09-12T06:38:00;95876.56;;;14.03;97.74
71392;BME280;59205;50.610;12.638;2022-09-12T06:40:26;95872.41;;;14.22;95.37
71392;BME280;59205;50.610;12.638;2022-09-12T06:42:52;95872.81;;;14.55;96.05
71392;BME280;59205;50.610;12.638;2022-09-12T06:45:17;95875.50;;;14.50;94.41
71392;BME280;59205;50.610;12.638;2022-09-12T06:47:44;95869.28;;;14.49;94.25
71392;BME280;59205;50.610;12.638;2022-09-12T06:50:09;95865.84;;;14.74;94.17
71392;BME280;59205;50.610;12.638;2022-09-12T06:52:35;95870.66;;;14.59;94.55
71392;BME280;59205;50.610;12.638;2022-09-12T06:55:00;95878.16;;;14.44;95.33
71392;BME280;59205;50.610;12.638;2022-09-12T06:57:26;95881.06;;;14.06;95.06
71392;BME280;59205;50.610;12.638;2022-09-12T06:59:54;95875.41;;;14.24;97.06
71392;BME280;59205;50.610;12.638;2022-09-12T07:02:20;95877.66;;;14.26;96.51
71392;BME280;59205;50.610;12.638;2022-09-12T07:04:45;95875.59;;;14.21;97.21
71392;BME280;59205;50.610;12.638;2022-09-12T07:07:11;95872.88;;;14.41;95.48
71392;BME280;59205;50.610;12.638;2022-09-12T07:09:37;95875.34;;;14.59;96.11
71392;BME280;59205;50.610;12.638;2022-09-12T07:12:02;95885.16;;;14.91;95.20
71392;BME280;59205;50.610;12.638;2022-09-12T07:14:29;95887.44;;;15.18;90.73
71392;BME280;59205;50.610;12.638;2022-09-12T07:16:54;95890.41;;;15.40;90.17
71392;BME280;59205;50.610;12.638;2022-09-12T07:19:20;95879.28;;;14.78;90.62
71392;BME280;59205;50.610;12.638;2022-09-12T07:21:45;95884.47;;;14.96;92.60
71392;BME280;59205;50.610;12.638;2022-09-12T07:24:11;95886.22;;;14.99;91.69
71392;BME280;59205;50.610;12.638;2022-09-12T07:26:37;95891.50;;;16.15;84.77
71392;BME280;59205;50.610;12.638;2022-09-12T07:29:04;95890.06;;;17.47;78.91
71392;BME280;59205;50.610;12.638;2022-09-12T07:31:29;95889.28;;;16.61;82.21
71392;BME280;59205;50.610;12.638;2022-09-12T07:33:55;95890.50;;;16.18;83.71
71392;BME280;59205;50.610;12.638;2022-09-12T07:36:22;95895.66;;;16.47;83.23
71392;BME280;59205;50.610;12.638;2022-09-12T07:38:54;95886.50;;;16.55;83.35
71392;BME280;59205;50.610;12.638;2022-09-12T07:41:21;95897.16;;;16.11;85.61
71392;BME280;59205;50.610;12.638;2022-09-12T07:43:50;95889.56;;;15.59;87.31
71392;BME280;59205;50.610;12.638;2022-09-12T07:46:16;95895.94;;;15.25;91.09
71392;BME280;59205;50.610;12.638;2022-09-12T07:48:41;95886.91;;;15.39;90.61
71392;BME280;59205;50.610;12.638;2022-09-12T07:51:09;95885.03;;;16.60;87.17
71392;BME280;59205;50.610;12.638;2022-09-12T07:53:40;95885.59;;;18.04;80.82
71392;BME280;59205;50.610;12.638;2022-09-12T07:56:07;95896.84;;;19.82;66.00
71392;BME280;59205;50.610;12.638;2022-09-12T07:58:35;95903.41;;;19.74;65.83
71392;BME280;59205;50.610;12.638;2022-09-12T08:03:30;95909.09;;;21.49;61.03
71392;BME280;59205;50.610;12.638;2022-09-12T08:08:32;95898.81;;;19.01;69.96
71392;BME280;59205;50.610;12.638;2022-09-12T08:11:02;95895.56;;;17.58;75.19
71392;BME280;59205;50.610;12.638;2022-09-12T08:13:30;95898.72;;;16.60;81.44
71392;BME280;59205;50.610;12.638;2022-09-12T08:16:01;95897.28;;;16.28;81.69
71392;BME280;59205;50.610;12.638;2022-09-12T08:18:28;95903.19;;;16.21;84.42
71392;BME280;59205;50.610;12.638;2022-09-12T08:20:58;95897.28;;;16.28;85.07
71392;BME280;59205;50.610;12.638;2022-09-12T08:23:25;95888.16;;;16.00;84.02
71392;BME280;59205;50.610;12.638;2022-09-12T08:25:54;95891.56;;;15.58;84.00
71392;BME280;59205;50.610;12.638;2022-09-12T08:28:20;95888.44;;;15.71;84.21
71392;BME280;59205;50.610;12.638;2022-09-12T08:30:45;95893.81;;;17.99;75.52
71392;BME280;59205;50.610;12.638;2022-09-12T08:33:11;95897.97;;;19.28;68.79
71392;BME280;59205;50.610;12.638;2022-09-12T08:35:36;95907.63;;;19.80;65.64
71392;BME280;59205;50.610;12.638;2022-09-12T08:38:01;95895.69;;;21.90;56.77
71392;BME280;59205;50.610;12.638;2022-09-12T08:40:27;95900.47;;;19.66;62.42
71392;BME280;59205;50.610;12.638;2022-09-12T08:46:15;95902.00;;;21.53;59.25
71392;BME280;59205;50.610;12.638;2022-09-12T08:48:44;95895.22;;;21.73;57.98
71392;BME280;59205;50.610;12.638;2022-09-12T08:51:12;95900.25;;;22.19;56.52
71392;BME280;59205;50.610;12.638;2022-09-12T08:53:39;95907.72;;;22.37;55.49
71392;BME280;59205;50.610;12.638;2022-09-12T08:56:06;95910.97;;;23.05;53.13
71392;BME280;59205;50.610;12.638;2022-09-12T08:58:39;95905.84;;;20.66;58.83
71392;BME280;59205;50.610;12.638;2022-09-12T09:01:17;95909.69;;;20.04;59.38
71392;BME280;59205;50.610;12.638;2022-09-12T09:09:33;95899.94;;;20.32;59.28
71392;BME280;59205;50.610;12.638;2022-09-12T09:13:14;95896.09;;;22.12;52.73
71392;BME280;59205;50.610;12.638;2022-09-12T09:18:09;95898.00;;;22.17;52.28
71392;BME280;59205;50.610;12.638;2022-09-12T09:20:44;95894.44;;;23.39;49.85
71392;BME280;59205;50.610;12.638;2022-09-12T09:23:33;95897.41;;;24.08;47.02
71392;BME280;59205;50.610;12.638;2022-09-12T09:31:15;95890.47;;;20.28;58.76
71392;BME280;59205;50.610;12.638;2022-09-12T09:33:41;95886.97;;;20.51;56.31
71392;BME280;59205;50.610;12.638;2022-09-12T09:38:49;95885.13;;;20.59;57.91
71392;BME280;59205;50.610;12.638;2022-09-12T09:41:50;95875.00;;;19.20;62.07
71392;BME280;59205;50.610;12.638;2022-09-12T09:44:17;95892.13;;;20.60;57.27
71392;BME280;59205;50.610;12.638;2022-09-12T09:46:42;95877.72;;;21.52;53.76
71392;BME280;59205;50.610;12.638;2022-09-12T09:49:11;95880.88;;;22.06;52.21
71392;BME280;59205;50.610;12.638;2022-09-12T09:51:40;95880.47;;;23.11;52.79
71392;BME280;59205;50.610;12.638;2022-09-12T09:54:18;95881.25;;;24.95;42.67
71392;BME280;59205;50.610;12.638;2022-09-12T09:56:45;95878.56;;;25.53;38.41
71392;BME280;59205;50.610;12.638;2022-09-12T09:59:15;95877.50;;;24.85;40.29
71392;BME280;59205;50.610;12.638;2022-09-12T10:01:44;95879.47;;;24.77;43.75
71392;BME280;59205;50.610;12.638;2022-09-12T10:04:26;95875.91;;;25.40;41.69
71392;BME280;59205;50.610;12.638;2022-09-12T10:06:55;95863.31;;;26.42;39.91
71392;BME280;59205;50.610;12.638;2022-09-12T10:11:51;95856.00;;;19.92;58.84
71392;BME280;59205;50.610;12.638;2022-09-12T10:14:38;95867.09;;;19.00;60.70
71392;BME280;59205;50.610;12.638;2022-09-12T10:19:49;95865.84;;;18.28;60.44
71392;BME280;59205;50.610;12.638;2022-09-12T10:22:17;95863.16;;;18.90;58.63
71392;BME280;59205;50.610;12.638;2022-09-12T10:24:49;95865.84;;;18.44;61.32
71392;BME280;59205;50.610;12.638;2022-09-12T10:27:25;95863.34;;;21.40;54.44
71392;BME280;59205;50.610;12.638;2022-09-12T10:29:55;95856.25;;;22.52;49.71
71392;BME280;59205;50.610;12.638;2022-09-12T10:32:32;95855.47;;;23.83;41.05
71392;BME280;59205;50.610;12.638;2022-09-12T10:35:07;95846.81;;;22.03;46.57
71392;BME280;59205;50.610;12.638;2022-09-12T10:37:39;95855.31;;;22.18;47.96
71392;BME280;59205;50.610;12.638;2022-09-12T10:40:19;95857.47;;;24.24;42.42
71392;BME280;59205;50.610;12.638;2022-09-12T10:42:55;95854.72;;;25.65;39.17
71392;BME280;59205;50.610;12.638;2022-09-12T10:45:33;95852.41;;;24.15;43.19
71392;BME280;59205;50.610;12.638;2022-09-12T10:48:02;95845.06;;;21.37;54.22
71392;BME280;59205;50.610;12.638;2022-09-12T10:50:38;95848.38;;;21.17;53.68
71392;BME280;59205;50.610;12.638;2022-09-12T10:53:38;95848.91;;;21.97;53.55
71392;BME280;59205;50.610;12.638;2022-09-12T10:56:17;95845.41;;;21.47;50.53
71392;BME280;59205;50.610;12.638;2022-09-12T11:14:47;95849.47;;;24.68;40.89
71392;BME280;59205;50.610;12.638;2022-09-12T11:20:44;95843.03;;;23.97;41.54
71392;BME280;59205;50.610;12.638;2022-09-12T11:26:08;95843.38;;;22.67;43.86
71392;BME280;59205;50.610;12.638;2022-09-12T11:29:20;95847.72;;;24.86;38.90
71392;BME280;59205;50.610;12.638;2022-09-12T11:34:38;95839.41;;;26.02;36.60
71392;BME280;59205;50.610;12.638;2022-09-12T11:43:00;95839.47;;;23.76;40.20
71392;BME280;59205;50.610;12.638;2022-09-12T11:45:32;95841.75;;;22.85;45.24
71392;BME280;59205;50.610;12.638;2022-09-12T11:48:05;95833.75;;;24.63;37.98
71392;BME280;59205;50.610;12.638;2022-09-12T11:50:32;95839.38;;;24.78;41.33
71392;BME280;59205;50.610;12.638;2022-09-12T11:53:11;95841.59;;;24.04;44.19
71392;BME280;59205;50.610;12.638;2022-09-12T11:55:58;95841.06;;;23.85;45.50
71392;BME280;59205;50.610;12.638;2022-09-12T11:58:27;95838.72;;;24.57;43.57
71392;BME280;59205;50.610;12.638;2022-09-12T12:01:09;95845.06;;;23.97;42.18
71392;BME280;59205;50.610;12.638;2022-09-12T12:03:41;95838.34;;;24.13;43.23
71392;BME280;59205;50.610;12.638;2022-09-12T12:06:34;95835.19;;;22.62;46.69
71392;BME280;59205;50.610;12.638;2022-09-12T12:09:04;95831.91;;;23.23;44.83
71392;BME280;59205;50.610;12.638;2022-09-12T12:11:35;95830.25;;;23.94;42.77
71392;BME280;59205;50.610;12.638;2022-09-12T12:14:13;95839.81;;;24.14;42.82
71392;BME280;59205;50.610;12.638;2022-09-12T12:16:40;95829.97;;;24.81;40.49
71392;BME280;59205;50.610;12.638;2022-09-12T12:34:36;95821.72;;;20.22;49.37
71392;BME280;59205;50.610;12.638;2022-09-12T12:42:09;95818.59;;;22.88;43.88
71392;BME280;59205;50.610;12.638;2022-09-12T12:44:47;95809.53;;;22.10;44.44
71392;BME280;59205;50.610;12.638;2022-09-12T12:47:22;95804.38;;;22.71;44.49
71392;BME280;59205;50.610;12.638;2022-09-12T12:49:56;95804.25;;;22.51;44.72
71392;BME280;59205;50.610;12.638;2022-09-12T12:52:24;95793.47;;;21.82;47.30
71392;BME280;59205;50.610;12.638;2022-09-12T12:54:53;95800.47;;;21.83;51.48
71392;BME280;59205;50.610;12.638;2022-09-12T12:59:51;95785.84;;;22.14;46.44
71392;BME280;59205;50.610;12.638;2022-09-12T13:02:20;95790.28;;;22.95;43.71
71392;BME280;59205;50.610;12.638;2022-09-12T13:04:47;95787.66;;;22.12;44.56
71392;BME280;59205;50.610;12.638;2022-09-12T13:07:23;95785.41;;;22.88;42.05
71392;BME280;59205;50.610;12.638;2022-09-12T13:09:50;95783.28;;;21.27;44.77
71392;BME280;59205;50.610;12.638;2022-09-12T13:12:22;95783.88;;;20.47;47.04
71392;BME280;59205;50.610;12.638;2022-09-12T13:14:57;95774.84;;;20.04;52.67
71392;BME280;59205;50.610;12.638;2022-09-12T13:17:37;95775.88;;;21.22;48.02
71392;BME280;59205;50.610;12.638;2022-09-12T13:20:23;95772.59;;;21.05;47.56
71392;BME280;59205;50.610;12.638;2022-09-12T13:22:51;95780.44;;;20.22;53.02
71392;BME280;59205;50.610;12.638;2022-09-12T13:30:41;95771.63;;;20.00;51.09
71392;BME280;59205;50.610;12.638;2022-09-12T13:41:29;95759.69;;;20.40;48.84
71392;BME280;59205;50.610;12.638;2022-09-12T13:44:00;95752.69;;;20.57;48.31
71392;BME280;59205;50.610;12.638;2022-09-12T13:46:31;95747.81;;;20.87;47.27
71392;BME280;59205;50.610;12.638;2022-09-12T13:48:59;95747.53;;;19.82;50.74
71392;BME280;59205;50.610;12.638;2022-09-12T13:51:28;95758.66;;;19.71;51.08
71392;BME280;59205;50.610;12.638;2022-09-12T13:53:57;95747.28;;;19.85;51.36
71392;BME280;59205;50.610;12.638;2022-09-12T13:56:24;95744.91;;;19.71;51.49
71392;BME280;59205;50.610;12.638;2022-09-12T13:58:58;95745.41;;;19.69;54.44
71392;BME280;59205;50.610;12.638;2022-09-12T14:01:38;95741.81;;;19.80;52.50
71392;BME280;59205;50.610;12.638;2022-09-12T14:04:17;95738.84;;;20.02;49.82
71392;BME280;59205;50.610;12.638;2022-09-12T14:07:10;95736.63;;;20.00;51.11
71392;BME280;59205;50.610;12.638;2022-09-12T14:09:39;95731.50;;;20.10;50.65
71392;BME280;59205;50.610;12.638;2022-09-12T14:12:23;95734.72;;;20.14;50.62
71392;BME280;59205;50.610;12.638;2022-09-12T14:14:51;95736.66;;;19.71;52.87
71392;BME280;59205;50.610;12.638;2022-09-12T14:17:26;95741.19;;;19.68;51.69
71392;BME280;59205;50.610;12.638;2022-09-12T14:19:57;95734.16;;;19.73;51.69
71392;BME280;59205;50.610;12.638;2022-09-12T14:22:28;95737.22;;;19.64;51.35
71392;BME280;59205;50.610;12.638;2022-09-12T14:24:55;95736.72;;;19.89;49.98
71392;BME280;59205;50.610;12.638;2022-09-12T14:27:30;95734.66;;;19.71;51.48
71392;BME280;59205;50.610;12.638;2022-09-12T14:30:06;95737.44;;;19.66;50.76
71392;BME280;59205;50.610;12.638;2022-09-12T14:32:34;95728.22;;;19.39;54.19
71392;BME280;59205;50.610;12.638;2022-09-12T14:35:19;95726.44;;;19.42;54.75
71392;BME280;59205;50.610;12.638;2022-09-12T14:37:47;95714.16;;;19.43;54.31
71392;BME280;59205;50.610;12.638;2022-09-12T14:40:22;95722.09;;;19.22;56.13
71392;BME280;59205;50.610;12.638;2022-09-12T14:42:49;95721.03;;;19.60;54.74
71392;BME280;59205;50.610;12.638;2022-09-12T14:45:16;95721.53;;;19.29;54.80
71392;BME280;59205;50.610;12.638;2022-09-12T14:47:43;95713.63;;;19.20;55.30
71392;BME280;59205;50.610;12.638;2022-09-12T14:50:22;95714.09;;;19.24;55.89
71392;BME280;59205;50.610;12.638;2022-09-12T14:53:18;95714.47;;;19.39;52.92
71392;BME280;59205;50.610;12.638;2022-09-12T14:56:09;95708.50;;;19.00;55.51
71392;BME280;59205;50.610;12.638;2022-09-12T14:58:35;95707.41;;;19.14;56.54
71392;BME280;59205;50.610;12.638;2022-09-12T15:03:33;95711.41;;;18.79;54.09
71392;BME280;59205;50.610;12.638;2022-09-12T15:06:01;95709.91;;;18.83;55.96
71392;BME280;59205;50.610;12.638;2022-09-12T15:08:28;95716.06;;;18.95;58.09
71392;BME280;59205;50.610;12.638;2022-09-12T15:10:55;95697.28;;;18.98;56.31
71392;BME280;59205;50.610;12.638;2022-09-12T15:13:24;95704.28;;;18.99;56.89
71392;BME280;59205;50.610;12.638;2022-09-12T15:15:53;95709.09;;;18.48;56.87
71392;BME280;59205;50.610;12.638;2022-09-12T15:18:21;95708.94;;;18.35;58.64
71392;BME280;59205;50.610;12.638;2022-09-12T15:20:50;95706.03;;;18.62;56.03
71392;BME280;59205;50.610;12.638;2022-09-12T15:25:54;95698.84;;;18.89;54.11
71392;BME280;59205;50.610;12.638;2022-09-12T15:28:21;95708.91;;;18.81;55.24